sensor_id;sensor_type;location;lat;lon;timestamp;pressure;altitude;pressure_sealevel;temperature;humidity
24558;BME280;12726;49.148;8.582;2024-01-16T00:01:11;99894.34;;;-1.92;100.00
24558;BME280;12726;49.148;8.582;2024-01-16T00:03:58;99898.94;;;-1.94;100.00
24558;BME280;12726;49.148;8.582;2024-01-16T00:06:43;99901.53;;;-1.85;100.00
24558;BME280;12726;49.148;8.582;2024-01-16T00:09:32;99913.19;;;-1.87;100.00
24558;BME280;12726;49.148;8.582;2024-01-16T00:12:18;99911.97;;;-1.93;100.00
24558;BME280;12726;49.148;8.582;2024-01-16T00:15:04;99909.63;;;-1.96;100.00
24558;BME280;12726;49.148;8.582;2024-01-16T00:17:52;99906.00;;;-1.95;100.00
24558;BME280;12726;49.148;8.582;2024-01-16T00:20:37;99911.41;;;-1.97;100.00
24558;BME280;12726;49.148;8.582;2024-01-16T00:23:23;99914.75;;;-1.94;100.00
24558;BME280;12726;49.148;8.582;2024-01-16T00:26:19;99904.72;;;-1.91;100.00
24558;BME280;12726;49.148;8.582;2024-01-16T00:29:04;99906.94;;;-1.86;100.00
24558;BME280;12726;49.148;8.582;2024-01-16T00:31:49;99918.75;;;-1.90;100.00
24558;BME280;12726;49.148;8.582;2024-01-16T00:34:35;99911.81;;;-1.91;100.00
24558;BME280;12726;49.148;8.582;2024-01-16T00:37:20;99909.88;;;-1.89;100.00
24558;BME280;12726;49.148;8.582;2024-01-16T00:40:07;99915.97;;;-1.89;100.00
24558;BME280;12726;49.148;8.582;2024-01-16T00:42:55;99917.25;;;-1.93;100.00
24558;BME280;12726;49.148;8.582;2024-01-16T00:45:40;99904.19;;;-1.94;100.00
24558;BME280;12726;49.148;8.582;2024-01-16T00:48:25;99911.28;;;-1.95;100.00
24558;BME280;12726;49.148;8.582;2024-01-16T00:51:10;99898.34;;;-1.88;100.00
24558;BME280;12726;49.148;8.582;2024-01-16T00:53:56;99910.69;;;-1.89;100.00
24558;BME280;12726;49.148;8.582;2024-01-16T00:56:42;99923.19;;;-1.91;100.00
24558;BME280;12726;49.148;8.582;2024-01-16T00:59:28;99925.00;;;-1.91;100.00
24558;BME280;12726;49.148;8.582;2024-01-16T01:02:14;99927.53;;;-2.00;100.00
24558;BME280;12726;49.148;8.582;2024-01-16T01:04:59;99929.59;;;-1.93;100.00
24558;BME280;12726;49.148;8.582;2024-01-16T01:07:45;99929.34;;;-2.00;100.00
24558;BME280;12726;49.148;8.582;2024-01-16T01:10:31;99927.81;;;-2.03;100.00
24558;BME280;12726;49.148;8.582;2024-01-16T01:13:17;99927.81;;;-2.03;100.00
24558;BME280;12726;49.148;8.582;2024-01-16T01:16:04;99929.75;;;-2.05;100.00
24558;BME280;12726;49.148;8.582;2024-01-16T01:18:49;99924.75;;;-1.98;100.00
24558;BME280;12726;49.148;8.582;2024-01-16T01:21:35;99928.78;;;-2.04;100.00
24558;BME280;12726;49.148;8.582;2024-01-16T01:24:20;99936.72;;;-2.04;100.00
24558;BME280;12726;49.148;8.582;2024-01-16T01:27:06;99941.84;;;-2.12;100.00
24558;BME280;12726;49.148;8.582;2024-01-16T01:29:51;99939.91;;;-2.10;100.00
24558;BME280;12726;49.148;8.582;2024-01-16T01:32:38;99939.47;;;-1.95;100.00
24558;BME280;12726;49.148;8.582;2024-01-16T01:35:24;99945.84;;;-1.98;100.00
24558;BME280;12726;49.148;8.582;2024-01-16T01:38:09;99949.19;;;-2.06;100.00
24558;BME280;12726;49.148;8.582;2024-01-16T01:40:54;99957.28;;;-2.07;100.00
24558;BME280;12726;49.148;8.582;2024-01-16T01:43:40;99961.03;;;-2.10;100.00
24558;BME280;12726;49.148;8.582;2024-01-16T01:46:25;99958.50;;;-2.11;100.00
24558;BME280;12726;49.148;8.582;2024-01-16T01:49:13;99959.22;;;-2.09;100.00
24558;BME280;12726;49.148;8.582;2024-01-16T01:51:59;99960.75;;;-2.07;100.00
24558;BME280;12726;49.148;8.582;2024-01-16T01:54:45;99962.94;;;-2.02;100.00
24558;BME280;12726;49.148;8.582;2024-01-16T01:57:32;99957.28;;;-2.07;100.00
24558;BME280;12726;49.148;8.582;2024-01-16T02:00:18;99950.88;;;-2.05;100.00
24558;BME280;12726;49.148;8.582;2024-01-16T02:03:03;99947.56;;;-2.07;100.00
24558;BME280;12726;49.148;8.582;2024-01-16T02:05:50;99944.94;;;-2.07;100.00
24558;BME280;12726;49.148;8.582;2024-01-16T02:08:36;99952.00;;;-2.07;100.00
24558;BME280;12726;49.148;8.582;2024-01-16T02:11:21;99958.38;;;-2.10;100.00
24558;BME280;12726;49.148;8.582;2024-01-16T02:14:07;99950.75;;;-2.13;100.00
24558;BME280;12726;49.148;8.582;2024-01-16T02:16:52;99958.66;;;-2.13;100.00
24558;BME280;12726;49.148;8.582;2024-01-16T02:19:37;99954.78;;;-2.18;100.00
24558;BME280;12726;49.148;8.582;2024-01-16T02:22:25;99955.22;;;-2.23;100.00
24558;BME280;12726;49.148;8.582;2024-01-16T02:25:15;99955.50;;;-2.26;100.00
24558;BME280;12726;49.148;8.582;2024-01-16T02:28:02;99966.34;;;-2.29;100.00
24558;BME280;12726;49.148;8.582;2024-01-16T02:30:47;99959.53;;;-2.31;100.00
24558;BME280;12726;49.148;8.582;2024-01-16T02:33:32;99957.88;;;-2.32;100.00
24558;BME280;12726;49.148;8.582;2024-01-16T02:36:18;99962.16;;;-2.41;100.00
24558;BME280;12726;49.148;8.582;2024-01-16T02:39:03;99957.19;;;-2.44;100.00
24558;BME280;12726;49.148;8.582;2024-01-16T02:41:51;99960.09;;;-2.47;100.00
24558;BME280;12726;49.148;8.582;2024-01-16T02:44:36;99964.13;;;-2.53;100.00
24558;BME280;12726;49.148;8.582;2024-01-16T02:47:22;99964.00;;;-2.61;100.00
24558;BME280;12726;49.148;8.582;2024-01-16T02:50:08;99966.22;;;-2.66;100.00
24558;BME280;12726;49.148;8.582;2024-01-16T02:52:53;99968.44;;;-2.71;100.00
24558;BME280;12726;49.148;8.582;2024-01-16T02:55:39;99962.75;;;-2.76;100.00
24558;BME280;12726;49.148;8.582;2024-01-16T02:58:25;99975.09;;;-2.77;100.00
24558;BME280;12726;49.148;8.582;2024-01-16T03:01:11;99972.59;;;-2.78;100.00
24558;BME280;12726;49.148;8.582;2024-01-16T03:03:56;99979.50;;;-2.77;100.00
24558;BME280;12726;49.148;8.582;2024-01-16T03:06:41;99977.19;;;-2.70;100.00
24558;BME280;12726;49.148;8.582;2024-01-16T03:09:26;99971.34;;;-2.64;100.00
24558;BME280;12726;49.148;8.582;2024-01-16T03:12:12;99985.63;;;-2.48;100.00
24558;BME280;12726;49.148;8.582;2024-01-16T03:14:59;99978.72;;;-2.49;100.00
24558;BME280;12726;49.148;8.582;2024-01-16T03:17:44;99977.59;;;-2.46;100.00
24558;BME280;12726;49.148;8.582;2024-01-16T03:20:29;99966.63;;;-2.51;100.00
24558;BME280;12726;49.148;8.582;2024-01-16T03:23:15;99971.91;;;-2.42;100.00
24558;BME280;12726;49.148;8.582;2024-01-16T03:26:00;99980.75;;;-2.33;100.00
24558;BME280;12726;49.148;8.582;2024-01-16T03:28:46;99974.91;;;-2.27;100.00
24558;BME280;12726;49.148;8.582;2024-01-16T03:31:32;99974.66;;;-2.33;100.00
24558;BME280;12726;49.148;8.582;2024-01-16T03:34:17;99976.44;;;-2.34;100.00
24558;BME280;12726;49.148;8.582;2024-01-16T03:37:03;99977.84;;;-2.30;100.00
24558;BME280;12726;49.148;8.582;2024-01-16T03:39:48;99975.63;;;-2.25;100.00
24558;BME280;12726;49.148;8.582;2024-01-16T03:42:34;99976.88;;;-2.29;100.00
24558;BME280;12726;49.148;8.582;2024-01-16T03:45:19;99971.63;;;-2.29;100.00
24558;BME280;12726;49.148;8.582;2024-01-16T03:48:06;99974.66;;;-2.24;100.00
24558;BME280;12726;49.148;8.582;2024-01-16T03:50:51;99978.13;;;-2.23;100.00
24558;BME280;12726;49.148;8.582;2024-01-16T03:53:38;99962.16;;;-2.22;100.00
24558;BME280;12726;49.148;8.582;2024-01-16T03:56:23;99968.81;;;-2.18;100.00
24558;BME280;12726;49.148;8.582;2024-01-16T03:59:09;99971.75;;;-2.21;100.00
24558;BME280;12726;49.148;8.582;2024-01-16T04:01:54;99965.91;;;-2.24;100.00
24558;BME280;12726;49.148;8.582;2024-01-16T04:04:41;99971.19;;;-2.24;100.00
24558;BME280;12726;49.148;8.582;2024-01-16T04:07:26;99972.28;;;-2.27;100.00
24558;BME280;12726;49.148;8.582;2024-01-16T04:10:12;99972.72;;;-2.22;100.00
24558;BME280;12726;49.148;8.582;2024-01-16T04:13:00;99972.72;;;-2.22;100.00
24558;BME280;12726;49.148;8.582;2024-01-16T04:15:45;99972.28;;;-2.17;100.00
24558;BME280;12726;49.148;8.582;2024-01-16T04:18:35;99965.63;;;-2.21;100.00
24558;BME280;12726;49.148;8.582;2024-01-16T04:21:22;99967.44;;;-2.31;100.00
24558;BME280;12726;49.148;8.582;2024-01-16T04:24:07;99965.78;;;-2.32;100.00
24558;BME280;12726;49.148;8.582;2024-01-16T04:26:52;99973.97;;;-2.35;100.00
24558;BME280;12726;49.148;8.582;2024-01-16T04:29:37;99963.97;;;-2.32;99.76
24558;BME280;12726;49.148;8.582;2024-01-16T04:32:23;99968.72;;;-2.35;100.00
24558;BME280;12726;49.148;8.582;2024-01-16T04:35:08;99960.66;;;-2.44;100.00
24558;BME280;12726;49.148;8.582;2024-01-16T04:37:55;99959.44;;;-2.49;100.00
24558;BME280;12726;49.148;8.582;2024-01-16T04:40:41;99956.53;;;-2.56;100.00
24558;BME280;12726;49.148;8.582;2024-01-16T04:43:26;99965.66;;;-2.60;100.00
24558;BME280;12726;49.148;8.582;2024-01-16T04:46:12;99963.84;;;-2.59;100.00
24558;BME280;12726;49.148;8.582;2024-01-16T04:48:58;99970.66;;;-2.66;100.00
24558;BME280;12726;49.148;8.582;2024-01-16T04:51:44;99969.00;;;-2.67;100.00
24558;BME280;12726;49.148;8.582;2024-01-16T04:54:31;99963.72;;;-2.77;100.00
24558;BME280;12726;49.148;8.582;2024-01-16T04:57:16;99958.19;;;-2.74;100.00
24558;BME280;12726;49.148;8.582;2024-01-16T05:00:02;99959.97;;;-2.74;100.00
24558;BME280;12726;49.148;8.582;2024-01-16T05:02:50;99955.81;;;-2.77;100.00
24558;BME280;12726;49.148;8.582;2024-01-16T05:05:35;99961.91;;;-2.77;100.00
24558;BME280;12726;49.148;8.582;2024-01-16T05:08:21;99961.38;;;-2.80;100.00
24558;BME280;12726;49.148;8.582;2024-01-16T05:11:08;99953.34;;;-2.79;100.00
24558;BME280;12726;49.148;8.582;2024-01-16T05:13:53;99965.09;;;-2.83;100.00
24558;BME280;12726;49.148;8.582;2024-01-16T05:16:41;99948.06;;;-2.88;100.00
24558;BME280;12726;49.148;8.582;2024-01-16T05:19:27;99948.47;;;-2.93;100.00
24558;BME280;12726;49.148;8.582;2024-01-16T05:22:12;99949.69;;;-2.97;100.00
24558;BME280;12726;49.148;8.582;2024-01-16T05:24:59;99943.75;;;-2.99;100.00
24558;BME280;12726;49.148;8.582;2024-01-16T05:27:46;99938.19;;;-2.96;100.00
24558;BME280;12726;49.148;8.582;2024-01-16T05:30:32;99927.78;;;-2.97;100.00
24558;BME280;12726;49.148;8.582;2024-01-16T05:33:17;99928.22;;;-3.02;100.00
24558;BME280;12726;49.148;8.582;2024-01-16T05:36:03;99917.69;;;-3.02;100.00
24558;BME280;12726;49.148;8.582;2024-01-16T05:38:48;99917.97;;;-2.95;100.00
24558;BME280;12726;49.148;8.582;2024-01-16T05:41:34;99912.69;;;-2.95;100.00
24558;BME280;12726;49.148;8.582;2024-01-16T05:44:21;99912.69;;;-2.95;100.00
24558;BME280;12726;49.148;8.582;2024-01-16T05:47:07;99916.44;;;-2.98;100.00
24558;BME280;12726;49.148;8.582;2024-01-16T05:49:52;99907.28;;;-3.03;100.00
24558;BME280;12726;49.148;8.582;2024-01-16T05:52:37;99915.59;;;-3.08;100.00
24558;BME280;12726;49.148;8.582;2024-01-16T05:55:25;99912.16;;;-3.08;100.00
24558;BME280;12726;49.148;8.582;2024-01-16T05:58:10;99908.69;;;-3.09;100.00
24558;BME280;12726;49.148;8.582;2024-01-16T06:00:57;99911.56;;;-3.12;100.00
24558;BME280;12726;49.148;8.582;2024-01-16T06:03:42;99914.19;;;-3.12;100.00
24558;BME280;12726;49.148;8.582;2024-01-16T06:06:30;99909.94;;;-3.13;100.00
24558;BME280;12726;49.148;8.582;2024-01-16T06:09:15;99904.09;;;-3.17;100.00
24558;BME280;12726;49.148;8.582;2024-01-16T06:12:01;99906.59;;;-3.15;100.00
24558;BME280;12726;49.148;8.582;2024-01-16T06:14:47;99911.59;;;-3.22;100.00
24558;BME280;12726;49.148;8.582;2024-01-16T06:17:34;99902.56;;;-3.19;100.00
24558;BME280;12726;49.148;8.582;2024-01-16T06:20:19;99901.59;;;-3.18;100.00
24558;BME280;12726;49.148;8.582;2024-01-16T06:23:07;99907.81;;;-3.19;100.00
24558;BME280;12726;49.148;8.582;2024-01-16T06:25:53;99908.25;;;-3.24;100.00
24558;BME280;12726;49.148;8.582;2024-01-16T06:28:38;99908.25;;;-3.24;100.00
24558;BME280;12726;49.148;8.582;2024-01-16T06:31:26;99907.81;;;-3.19;100.00
24558;BME280;12726;49.148;8.582;2024-01-16T06:34:13;99913.09;;;-3.19;100.00
24558;BME280;12726;49.148;8.582;2024-01-16T06:36:58;99904.91;;;-3.26;100.00
24558;BME280;12726;49.148;8.582;2024-01-16T06:39:44;99902.69;;;-3.30;100.00
24558;BME280;12726;49.148;8.582;2024-01-16T06:42:29;99909.88;;;-3.32;100.00
24558;BME280;12726;49.148;8.582;2024-01-16T06:45:14;99915.84;;;-3.30;100.00
24558;BME280;12726;49.148;8.582;2024-01-16T06:48:00;99907.13;;;-3.31;100.00
24558;BME280;12726;49.148;8.582;2024-01-16T06:50:47;99908.38;;;-3.25;100.00
24558;BME280;12726;49.148;8.582;2024-01-16T06:53:32;99908.13;;;-3.22;100.00
24558;BME280;12726;49.148;8.582;2024-01-16T06:56:17;99907.56;;;-3.16;100.00
24558;BME280;12726;49.148;8.582;2024-01-16T06:59:03;99906.72;;;-3.17;100.00
24558;BME280;12726;49.148;8.582;2024-01-16T07:01:48;99902.72;;;-3.11;100.00
24558;BME280;12726;49.148;8.582;2024-01-16T07:04:33;99905.47;;;-3.12;100.00
24558;BME280;12726;49.148;8.582;2024-01-16T07:07:20;99901.31;;;-3.05;100.00
24558;BME280;12726;49.148;8.582;2024-01-16T07:10:07;99903.94;;;-3.05;100.00
24558;BME280;12726;49.148;8.582;2024-01-16T07:12:57;99903.00;;;-3.04;100.00
24558;BME280;12726;49.148;8.582;2024-01-16T07:15:42;99907.59;;;-3.06;100.00
24558;BME280;12726;49.148;8.582;2024-01-16T07:18:31;99904.78;;;-3.05;100.00
24558;BME280;12726;49.148;8.582;2024-01-16T07:21:17;99903.16;;;-3.06;100.00
24558;BME280;12726;49.148;8.582;2024-01-16T07:24:04;99907.28;;;-3.03;100.00
24558;BME280;12726;49.148;8.582;2024-01-16T07:26:49;99901.88;;;-3.02;100.00
24558;BME280;12726;49.148;8.582;2024-01-16T07:29:35;99891.09;;;-2.99;100.00
24558;BME280;12726;49.148;8.582;2024-01-16T07:32:20;99895.22;;;-2.96;100.00
24558;BME280;12726;49.148;8.582;2024-01-16T07:35:06;99887.06;;;-2.93;100.00
24558;BME280;12726;49.148;8.582;2024-01-16T07:37:51;99899.81;;;-2.89;100.00
24558;BME280;12726;49.148;8.582;2024-01-16T07:40:38;99897.31;;;-2.90;100.00
24558;BME280;12726;49.148;8.582;2024-01-16T07:43:24;99884.72;;;-2.87;100.00
24558;BME280;12726;49.148;8.582;2024-01-16T07:46:10;99887.34;;;-2.87;100.00
24558;BME280;12726;49.148;8.582;2024-01-16T07:48:56;99885.41;;;-2.85;100.00
24558;BME280;12726;49.148;8.582;2024-01-16T07:51:41;99890.13;;;-2.79;100.00
24558;BME280;12726;49.148;8.582;2024-01-16T07:54:27;99887.19;;;-2.76;100.00
24558;BME280;12726;49.148;8.582;2024-01-16T07:57:14;99889.41;;;-2.71;100.00
24558;BME280;12726;49.148;8.582;2024-01-16T07:59:59;99894.13;;;-2.65;100.00
24558;BME280;12726;49.148;8.582;2024-01-16T08:02:45;99893.81;;;-2.62;100.00
24558;BME280;12726;49.148;8.582;2024-01-16T08:05:30;99899.78;;;-2.60;100.00
24558;BME280;12726;49.148;8.582;2024-01-16T08:08:15;99894.91;;;-2.55;100.00
24558;BME280;12726;49.148;8.582;2024-01-16T08:11:01;99908.78;;;-2.53;100.00
24558;BME280;12726;49.148;8.582;2024-01-16T08:13:48;99911.00;;;-2.48;100.00
24558;BME280;12726;49.148;8.582;2024-01-16T08:16:33;99911.56;;;-2.45;100.00
24558;BME280;12726;49.148;8.582;2024-01-16T08:19:18;99914.88;;;-2.43;100.00
24558;BME280;12726;49.148;8.582;2024-01-16T08:22:04;99919.03;;;-2.40;99.62
24558;BME280;12726;49.148;8.582;2024-01-16T08:24:49;99918.47;;;-2.34;99.40
24558;BME280;12726;49.148;8.582;2024-01-16T08:27:34;99928.47;;;-2.28;98.96
24558;BME280;12726;49.148;8.582;2024-01-16T08:30:22;99920.94;;;-2.23;99.16
24558;BME280;12726;49.148;8.582;2024-01-16T08:33:08;99927.44;;;-2.17;98.77
24558;BME280;12726;49.148;8.582;2024-01-16T08:35:53;99929.38;;;-2.10;97.62
24558;BME280;12726;49.148;8.582;2024-01-16T08:38:38;99937.25;;;-2.00;97.28
24558;BME280;12726;49.148;8.582;2024-01-16T08:41:24;99938.50;;;-1.94;96.69
24558;BME280;12726;49.148;8.582;2024-01-16T08:44:10;99938.03;;;-1.90;96.25
24558;BME280;12726;49.148;8.582;2024-01-16T08:46:56;99935.38;;;-1.80;95.97
24558;BME280;12726;49.148;8.582;2024-01-16T08:49:43;99942.72;;;-1.74;95.37
24558;BME280;12726;49.148;8.582;2024-01-16T08:52:28;99944.19;;;-1.62;94.79
24558;BME280;12726;49.148;8.582;2024-01-16T08:55:14;99941.38;;;-1.51;93.97
24558;BME280;12726;49.148;8.582;2024-01-16T08:57:59;99950.63;;;-1.47;93.77
24558;BME280;12726;49.148;8.582;2024-01-16T09:00:45;99956.47;;;-1.43;93.47
24558;BME280;12726;49.148;8.582;2024-01-16T09:03:32;99958.53;;;-1.37;93.15
24558;BME280;12726;49.148;8.582;2024-01-16T09:06:17;99964.56;;;-1.27;92.95
24558;BME280;12726;49.148;8.582;2024-01-16T09:09:02;99968.13;;;-1.19;92.41
24558;BME280;12726;49.148;8.582;2024-01-16T09:11:49;99968.50;;;-1.13;92.29
24558;BME280;12726;49.148;8.582;2024-01-16T09:14:34;99966.72;;;-1.13;91.04
24558;BME280;12726;49.148;8.582;2024-01-16T09:17:20;99959.84;;;-1.06;91.83
24558;BME280;12726;49.148;8.582;2024-01-16T09:20:08;99966.06;;;-0.97;90.70
24558;BME280;12726;49.148;8.582;2024-01-16T09:22:54;99966.69;;;-0.86;91.34
24558;BME280;12726;49.148;8.582;2024-01-16T09:25:39;99971.75;;;-0.74;90.71
24558;BME280;12726;49.148;8.582;2024-01-16T09:28:25;99967.81;;;-0.70;89.63
24558;BME280;12726;49.148;8.582;2024-01-16T09:31:14;99974.84;;;-0.61;88.67
24558;BME280;12726;49.148;8.582;2024-01-16T09:33:59;99979.59;;;-0.47;88.86
24558;BME280;12726;49.148;8.582;2024-01-16T09:36:46;99989.56;;;-0.41;87.88
24558;BME280;12726;49.148;8.582;2024-01-16T09:39:32;99985.03;;;-0.49;87.89
24558;BME280;12726;49.148;8.582;2024-01-16T09:42:22;99989.66;;;-0.51;87.32
24558;BME280;12726;49.148;8.582;2024-01-16T09:45:09;99991.59;;;-0.53;87.87
24558;BME280;12726;49.148;8.582;2024-01-16T09:47:54;99987.97;;;-0.52;87.69
24558;BME280;12726;49.148;8.582;2024-01-16T09:50:41;99980.06;;;-0.52;87.72
24558;BME280;12726;49.148;8.582;2024-01-16T09:53:28;99961.75;;;-0.45;87.46
24558;BME280;12726;49.148;8.582;2024-01-16T09:56:14;99965.06;;;-0.25;87.17
24558;BME280;12726;49.148;8.582;2024-01-16T09:59:05;99967.06;;;-0.02;86.52
24558;BME280;12726;49.148;8.582;2024-01-16T10:01:51;99972.41;;;0.07;85.05
24558;BME280;12726;49.148;8.582;2024-01-16T10:04:36;99955.75;;;0.48;84.09
24558;BME280;12726;49.148;8.582;2024-01-16T10:07:23;99959.13;;;1.57;79.98
24558;BME280;12726;49.148;8.582;2024-01-16T10:10:13;99955.03;;;2.42;75.86
24558;BME280;12726;49.148;8.582;2024-01-16T10:12:58;99945.28;;;2.73;73.61
24558;BME280;12726;49.148;8.582;2024-01-16T10:15:44;99949.81;;;2.57;72.11
24558;BME280;12726;49.148;8.582;2024-01-16T10:18:34;99938.84;;;2.60;73.37
24558;BME280;12726;49.148;8.582;2024-01-16T10:21:22;99941.97;;;2.24;71.48
24558;BME280;12726;49.148;8.582;2024-01-16T10:24:11;99938.06;;;1.88;74.21
24558;BME280;12726;49.148;8.582;2024-01-16T10:27:02;99940.06;;;1.45;75.13
24558;BME280;12726;49.148;8.582;2024-01-16T10:29:55;99928.19;;;0.75;77.82
24558;BME280;12726;49.148;8.582;2024-01-16T10:32:42;99928.84;;;0.69;79.49
24558;BME280;12726;49.148;8.582;2024-01-16T10:35:27;99928.72;;;0.87;80.14
24558;BME280;12726;49.148;8.582;2024-01-16T10:38:19;99923.34;;;1.21;78.24
24558;BME280;12726;49.148;8.582;2024-01-16T10:41:12;99921.66;;;1.68;77.62
24558;BME280;12726;49.148;8.582;2024-01-16T10:44:04;99926.19;;;2.23;76.73
24558;BME280;12726;49.148;8.582;2024-01-16T10:46:50;99916.13;;;2.49;72.72
24558;BME280;12726;49.148;8.582;2024-01-16T10:49:36;99920.78;;;2.86;71.99
24558;BME280;12726;49.148;8.582;2024-01-16T10:52:27;99910.09;;;3.63;68.42
24558;BME280;12726;49.148;8.582;2024-01-16T10:55:19;99904.81;;;4.65;65.08
24558;BME280;12726;49.148;8.582;2024-01-16T10:58:05;99895.94;;;5.86;60.25
24558;BME280;12726;49.148;8.582;2024-01-16T11:00:54;99900.66;;;6.94;56.44
24558;BME280;12726;49.148;8.582;2024-01-16T11:03:46;99891.28;;;7.31;53.12
24558;BME280;12726;49.148;8.582;2024-01-16T11:06:32;99898.88;;;7.27;54.26
24558;BME280;12726;49.148;8.582;2024-01-16T11:09:18;99892.00;;;6.92;54.31
24558;BME280;12726;49.148;8.582;2024-01-16T11:12:06;99890.00;;;7.20;53.82
24558;BME280;12726;49.148;8.582;2024-01-16T11:14:52;99885.44;;;7.01;53.51
24558;BME280;12726;49.148;8.582;2024-01-16T11:17:38;99883.50;;;6.75;53.78
24558;BME280;12726;49.148;8.582;2024-01-16T11:20:26;99876.38;;;6.07;55.56
24558;BME280;12726;49.148;8.582;2024-01-16T11:23:13;99874.84;;;5.21;57.60
24558;BME280;12726;49.148;8.582;2024-01-16T11:25:59;99867.88;;;4.48;60.47
24558;BME280;12726;49.148;8.582;2024-01-16T11:28:44;99856.06;;;4.71;62.01
24558;BME280;12726;49.148;8.582;2024-01-16T11:31:31;99846.72;;;4.97;61.03
24558;BME280;12726;49.148;8.582;2024-01-16T11:34:53;99853.44;;;5.14;59.93
24558;BME280;12726;49.148;8.582;2024-01-16T11:37:41;99843.25;;;5.45;58.90
24558;BME280;12726;49.148;8.582;2024-01-16T11:40:32;99843.41;;;5.65;58.23
24558;BME280;12726;49.148;8.582;2024-01-16T11:43:35;99843.16;;;6.16;57.55
24558;BME280;12726;49.148;8.582;2024-01-16T11:46:21;99844.53;;;6.46;54.67
24558;BME280;12726;49.148;8.582;2024-01-16T11:49:06;99837.53;;;7.52;53.06
24558;BME280;12726;49.148;8.582;2024-01-16T11:51:53;99828.28;;;8.83;51.10
24558;BME280;12726;49.148;8.582;2024-01-16T11:54:39;99830.38;;;9.44;47.92
24558;BME280;12726;49.148;8.582;2024-01-16T11:57:58;99822.34;;;9.62;46.01
24558;BME280;12726;49.148;8.582;2024-01-16T12:00:50;99818.22;;;10.03;43.86
24558;BME280;12726;49.148;8.582;2024-01-16T12:03:36;99808.81;;;9.51;41.38
24558;BME280;12726;49.148;8.582;2024-01-16T12:06:21;99790.59;;;9.28;42.12
24558;BME280;12726;49.148;8.582;2024-01-16T12:09:13;99791.19;;;9.98;43.73
24558;BME280;12726;49.148;8.582;2024-01-16T12:12:00;99791.97;;;11.01;41.23
24558;BME280;12726;49.148;8.582;2024-01-16T12:14:51;99786.03;;;10.81;40.32
24558;BME280;12726;49.148;8.582;2024-01-16T12:17:37;99776.38;;;12.43;37.29
24558;BME280;12726;49.148;8.582;2024-01-16T12:20:24;99779.97;;;11.97;35.99
24558;BME280;12726;49.148;8.582;2024-01-16T12:23:09;99780.06;;;11.67;35.36
24558;BME280;12726;49.148;8.582;2024-01-16T12:25:56;99768.22;;;12.14;36.20
24558;BME280;12726;49.148;8.582;2024-01-16T12:28:43;99769.78;;;12.39;34.42
24558;BME280;12726;49.148;8.582;2024-01-16T12:31:29;99762.31;;;12.57;34.24
24558;BME280;12726;49.148;8.582;2024-01-16T12:34:14;99750.19;;;11.80;34.21
24558;BME280;12726;49.148;8.582;2024-01-16T12:37:04;99750.31;;;11.97;34.65
24558;BME280;12726;49.148;8.582;2024-01-16T12:39:50;99750.78;;;11.82;34.94
24558;BME280;12726;49.148;8.582;2024-01-16T12:42:37;99754.66;;;11.74;34.96
24558;BME280;12726;49.148;8.582;2024-01-16T12:45:23;99753.13;;;12.42;34.25
24558;BME280;12726;49.148;8.582;2024-01-16T12:48:08;99752.84;;;12.55;32.76
24558;BME280;12726;49.148;8.582;2024-01-16T12:50:58;99751.25;;;11.67;34.30
24558;BME280;12726;49.148;8.582;2024-01-16T12:53:45;99736.13;;;11.31;34.00
24558;BME280;12726;49.148;8.582;2024-01-16T12:56:31;99741.88;;;10.70;37.11
24558;BME280;12726;49.148;8.582;2024-01-16T12:59:18;99732.00;;;9.61;37.16
24558;BME280;12726;49.148;8.582;2024-01-16T13:02:03;99732.16;;;8.74;39.29
24558;BME280;12726;49.148;8.582;2024-01-16T13:04:56;99727.22;;;7.88;41.01
24558;BME280;12726;49.148;8.582;2024-01-16T13:07:41;99720.88;;;7.56;41.31
24558;BME280;12726;49.148;8.582;2024-01-16T13:10:27;99726.91;;;6.59;42.99
24558;BME280;12726;49.148;8.582;2024-01-16T13:13:15;99720.47;;;5.86;45.53
24558;BME280;12726;49.148;8.582;2024-01-16T13:16:04;99712.56;;;5.65;46.58
24558;BME280;12726;49.148;8.582;2024-01-16T13:19:00;99710.13;;;5.36;46.69
24558;BME280;12726;49.148;8.582;2024-01-16T13:21:45;99700.88;;;5.32;47.64
24558;BME280;12726;49.148;8.582;2024-01-16T13:24:31;99704.63;;;5.44;46.94
24558;BME280;12726;49.148;8.582;2024-01-16T13:27:16;99700.41;;;4.72;47.82
24558;BME280;12726;49.148;8.582;2024-01-16T13:30:01;99702.13;;;4.38;49.00
24558;BME280;12726;49.148;8.582;2024-01-16T13:32:48;99696.84;;;4.23;50.22
24558;BME280;12726;49.148;8.582;2024-01-16T13:35:34;99694.56;;;4.20;50.80
24558;BME280;12726;49.148;8.582;2024-01-16T13:38:20;99684.34;;;4.02;51.06
24558;BME280;12726;49.148;8.582;2024-01-16T13:41:06;99676.44;;;3.94;49.82
24558;BME280;12726;49.148;8.582;2024-01-16T13:43:51;99662.56;;;3.99;50.42
24558;BME280;12726;49.148;8.582;2024-01-16T13:46:37;99669.72;;;3.98;51.80
24558;BME280;12726;49.148;8.582;2024-01-16T13:49:23;99664.97;;;3.93;51.37
24558;BME280;12726;49.148;8.582;2024-01-16T13:52:09;99668.38;;;3.87;50.27
24558;BME280;12726;49.148;8.582;2024-01-16T13:54:54;99671.13;;;3.94;50.50
24558;BME280;12726;49.148;8.582;2024-01-16T13:57:41;99666.06;;;3.99;49.19
24558;BME280;12726;49.148;8.582;2024-01-16T14:00:26;99665.50;;;3.68;48.41
24558;BME280;12726;49.148;8.582;2024-01-16T14:03:11;99669.06;;;3.75;49.70
24558;BME280;12726;49.148;8.582;2024-01-16T14:05:58;99675.50;;;3.66;50.39
24558;BME280;12726;49.148;8.582;2024-01-16T14:08:44;99662.03;;;3.52;50.04
24558;BME280;12726;49.148;8.582;2024-01-16T14:11:29;99665.34;;;3.54;50.86
24558;BME280;12726;49.148;8.582;2024-01-16T14:14:15;99668.44;;;3.58;51.17
24558;BME280;12726;49.148;8.582;2024-01-16T14:17:01;99671.56;;;3.62;50.82
24558;BME280;12726;49.148;8.582;2024-01-16T14:19:47;99667.63;;;3.58;50.71
24558;BME280;12726;49.148;8.582;2024-01-16T14:22:34;99669.47;;;3.42;51.61
24558;BME280;12726;49.148;8.582;2024-01-16T14:25:19;99672.22;;;3.34;51.45
24558;BME280;12726;49.148;8.582;2024-01-16T14:28:06;99668.63;;;3.27;52.31
24558;BME280;12726;49.148;8.582;2024-01-16T14:30:51;99673.84;;;3.21;53.05
24558;BME280;12726;49.148;8.582;2024-01-16T14:33:37;99666.59;;;3.00;52.59
24558;BME280;12726;49.148;8.582;2024-01-16T14:36:22;99673.94;;;2.83;53.09
24558;BME280;12726;49.148;8.582;2024-01-16T14:39:09;99671.59;;;2.65;54.18